createdAt,value
2023-01-13T00:01:08.014Z,85.58
2023-01-13T00:03:35.656Z,84.04
2023-01-13T00:06:05.000Z,85.37
2023-01-13T00:08:33.757Z,84.76
2023-01-13T00:11:01.378Z,85.54
2023-01-13T00:13:29.246Z,84.98
2023-01-13T00:15:58.020Z,85.34
2023-01-13T00:18:25.703Z,85.49
2023-01-13T00:20:59.973Z,85.61
2023-01-13T00:23:30.400Z,85.71
2023-01-13T00:25:58.137Z,85.56
2023-01-13T00:28:26.190Z,85.71
2023-01-13T00:30:53.813Z,85.58
2023-01-13T00:33:21.693Z,85.41
2023-01-13T00:35:56.956Z,84.63
2023-01-13T00:38:24.579Z,85.65
2023-01-13T00:41:00.436Z,85.63
2023-01-13T00:43:28.642Z,86.01
2023-01-13T00:45:56.262Z,85.09
2023-01-13T00:48:24.785Z,86.29
2023-01-13T00:50:56.502Z,85.28
2023-01-13T00:53:24.380Z,85.61
2023-01-13T00:56:01.632Z,85.42
2023-01-13T00:58:29.964Z,85.39
2023-01-13T01:01:01.186Z,86.07
2023-01-13T01:03:29.402Z,85.74
2023-01-13T01:05:57.175Z,85.74
2023-01-13T01:08:25.022Z,85.35
2023-01-13T01:11:03.036Z,86.29
2023-01-13T01:13:30.995Z,85.32
2023-01-13T01:15:58.707Z,85.61
2023-01-13T01:18:26.546Z,85.68
2023-01-13T01:20:54.152Z,86.13
2023-01-13T01:23:21.768Z,85.48
2023-01-13T01:25:49.366Z,85.67
2023-01-13T01:28:19.458Z,85.33
2023-01-13T01:30:47.196Z,85.26
2023-01-13T01:33:14.914Z,85.83
2023-01-13T01:35:42.949Z,86.05
2023-01-13T01:38:10.552Z,85.41
2023-01-13T01:40:38.184Z,85.42
2023-01-13T01:43:31.727Z,86.21
2023-01-13T01:46:00.660Z,84.01
2023-01-13T01:48:29.359Z,84.10
2023-01-13T01:50:57.042Z,83.65
2023-01-13T01:53:25.858Z,85.93
2023-01-13T01:55:53.478Z,85.17
2023-01-13T01:58:22.784Z,85.75
2023-01-13T02:00:50.534Z,84.75
2023-01-13T02:03:19.642Z,85.86
2023-01-13T02:05:47.289Z,85.35
2023-01-13T02:08:15.261Z,85.73
2023-01-13T02:10:43.979Z,85.73
2023-01-13T02:13:13.197Z,86.09
2023-01-13T02:15:45.444Z,85.80
2023-01-13T02:18:31.490Z,85.46
2023-01-13T02:21:43.833Z,85.69
2023-01-13T02:24:57.442Z,85.43
2023-01-13T02:27:54.051Z,85.54
2023-01-13T05:16:54.196Z,81.97
2023-01-13T05:19:21.685Z,83.78
2023-01-13T05:22:07.026Z,82.82
2023-01-13T05:24:52.491Z,83.41
2023-01-13T05:27:19.955Z,83.89
2023-01-13T05:29:47.460Z,84.50
2023-01-13T05:32:16.282Z,84.32
2023-01-13T05:34:43.780Z,83.25
2023-01-13T05:37:13.169Z,84.05
2023-01-13T05:39:54.738Z,84.51
2023-01-13T05:42:39.880Z,85.13
2023-01-13T05:45:08.389Z,84.34
2023-01-13T05:47:37.212Z,82.48
2023-01-13T05:50:07.193Z,83.98
2023-01-13T05:52:34.710Z,84.33
2023-01-13T05:55:02.188Z,84.31
2023-01-13T05:57:29.793Z,84.08
2023-01-13T05:59:57.270Z,84.24
2023-01-13T06:02:26.487Z,84.60
2023-01-13T06:04:55.298Z,83.19
2023-01-13T06:07:22.785Z,83.87
2023-01-13T06:09:50.267Z,83.11
2023-01-13T06:12:17.736Z,83.80
2023-01-13T06:14:45.274Z,83.49
2023-01-13T06:17:14.729Z,83.29
2023-01-13T06:19:43.020Z,83.11
2023-01-13T06:22:16.220Z,82.46
2023-01-13T06:24:44.227Z,82.62
2023-01-13T06:27:11.718Z,81.36
2023-01-13T06:29:39.222Z,82.81
2023-01-13T06:32:08.238Z,83.32
2023-01-13T06:34:36.402Z,83.23
2023-01-13T06:37:04.439Z,83.39
2023-01-13T06:39:33.435Z,83.59
2023-01-13T06:42:18.549Z,83.06
2023-01-13T06:44:46.376Z,83.62
2023-01-13T06:47:14.141Z,83.24
2023-01-13T06:49:41.678Z,83.31
2023-01-13T06:52:09.152Z,82.92
2023-01-13T06:54:38.012Z,83.44
2023-01-13T06:57:05.473Z,82.54
2023-01-13T06:59:34.344Z,82.56
2023-01-13T07:02:02.008Z,83.33
2023-01-13T07:04:29.650Z,83.06
2023-01-13T07:06:57.256Z,83.68
2023-01-13T07:09:24.761Z,82.70
2023-01-13T07:11:53.583Z,83.55
2023-01-13T07:14:38.915Z,83.31
2023-01-13T07:17:06.464Z,82.81
2023-01-13T07:19:33.976Z,83.86
2023-01-13T07:22:01.442Z,83.51
2023-01-13T07:24:28.945Z,83.28
2023-01-13T07:26:57.774Z,83.04
2023-01-13T07:29:25.271Z,83.73
2023-01-13T07:31:52.781Z,83.19
2023-01-13T07:34:20.293Z,83.15
2023-01-13T07:36:47.780Z,82.82
2023-01-13T07:39:15.522Z,82.87
2023-01-13T07:42:00.565Z,82.42
2023-01-13T07:44:29.373Z,82.27
2023-01-13T07:46:56.848Z,82.43
2023-01-13T07:49:24.329Z,81.76
2023-01-13T07:51:51.909Z,81.68
2023-01-13T07:54:25.536Z,82.83
2023-01-13T07:56:59.168Z,80.38
2023-01-13T07:59:26.916Z,81.55
2023-01-13T08:01:55.776Z,81.73
2023-01-13T08:04:23.516Z,82.07
2023-01-13T08:06:50.982Z,82.21
2023-01-13T08:09:18.454Z,81.99
2023-01-13T08:12:05.915Z,81.95
2023-01-13T08:14:33.434Z,80.97
2023-01-13T08:17:02.323Z,80.94
2023-01-13T08:19:29.811Z,81.87
2023-01-13T08:21:57.792Z,82.71
2023-01-13T08:24:25.285Z,82.18
2023-01-13T08:26:52.874Z,81.69
2023-01-13T08:29:20.359Z,81.98
2023-01-13T08:31:47.847Z,80.91
2023-01-13T08:34:16.926Z,81.39
2023-01-13T08:36:44.497Z,80.02
2023-01-13T08:39:11.966Z,82.24
2023-01-13T08:41:58.535Z,81.55
2023-01-13T08:44:27.208Z,81.04
2023-01-13T08:46:55.406Z,82.44
2023-01-13T08:49:25.323Z,80.92
2023-01-13T08:51:52.843Z,80.69
2023-01-13T08:54:20.678Z,80.67
2023-01-13T08:56:48.750Z,80.87
2023-01-13T08:59:17.168Z,80.47
2023-01-13T09:01:45.392Z,81.42
2023-01-13T09:04:16.909Z,80.53
2023-01-13T09:06:46.166Z,80.67
2023-01-13T09:09:13.725Z,80.02
2023-01-13T09:12:00.562Z,79.70
2023-01-13T09:14:30.610Z,80.99
2023-01-13T09:16:58.575Z,80.90
2023-01-13T09:19:26.483Z,80.21
2023-01-13T09:21:55.978Z,80.10
2023-01-13T09:24:24.151Z,80.58
2023-01-13T09:26:52.058Z,77.47
2023-01-13T09:29:19.949Z,80.10
2023-01-13T09:31:47.686Z,79.93
2023-01-13T09:34:34.742Z,76.50
2023-01-13T09:37:04.248Z,79.25
2023-01-13T09:39:32.970Z,80.38
2023-01-13T09:42:22.824Z,79.94
2023-01-13T09:44:53.394Z,79.36
2023-01-13T09:47:28.951Z,79.61
2023-01-13T09:50:03.029Z,80.17
2023-01-13T09:52:31.822Z,80.67
2023-01-13T09:55:01.763Z,75.95
2023-01-13T09:57:31.200Z,78.81
2023-01-13T09:59:59.087Z,79.70
2023-01-13T10:02:34.868Z,77.67
2023-01-13T10:05:11.746Z,79.02
2023-01-13T10:07:44.811Z,76.48
2023-01-13T10:10:17.779Z,77.20
2023-01-13T10:13:02.862Z,79.12
2023-01-13T10:15:30.369Z,77.93
2023-01-13T10:18:05.778Z,77.58
2023-01-13T10:20:37.021Z,78.02
2023-01-13T10:23:12.588Z,77.50
2023-01-13T10:25:56.749Z,77.62
2023-01-13T10:28:25.391Z,78.78
2023-01-13T10:30:53.006Z,78.49
2023-01-13T10:33:26.274Z,76.93
2023-01-13T10:36:00.152Z,77.72
2023-01-13T10:38:31.105Z,77.26
2023-01-13T10:41:00.234Z,76.78
2023-01-13T10:43:28.844Z,78.27
2023-01-13T10:45:59.842Z,77.82
2023-01-13T10:48:36.137Z,76.13
2023-01-13T10:51:20.853Z,77.85
2023-01-13T10:53:54.529Z,76.09
2023-01-13T10:56:23.619Z,77.85
2023-01-13T10:58:51.221Z,76.04
2023-01-13T11:01:26.767Z,76.07
2023-01-13T11:03:55.595Z,77.47
2023-01-13T11:06:26.011Z,78.35
2023-01-13T11:08:58.165Z,76.69
2023-01-13T11:11:38.116Z,75.71
2023-01-13T11:14:26.832Z,77.65
2023-01-13T11:16:56.667Z,77.46
2023-01-13T11:19:25.597Z,74.92
2023-01-13T11:21:57.704Z,75.33
2023-01-13T11:24:31.335Z,73.39
2023-01-13T11:27:01.532Z,76.86
2023-01-13T11:29:31.805Z,74.40
2023-01-13T11:32:04.873Z,75.46
2023-01-13T11:34:36.526Z,76.40
2023-01-13T11:37:09.852Z,74.98
2023-01-13T11:39:46.923Z,76.03
2023-01-13T11:42:24.111Z,75.60
2023-01-13T11:44:58.428Z,75.75
2023-01-13T11:47:27.414Z,75.91
2023-01-13T11:49:55.431Z,76.15
2023-01-13T11:52:25.211Z,74.99
2023-01-13T11:55:06.934Z,75.17
2023-01-13T11:57:50.411Z,73.49
2023-01-13T12:00:37.851Z,75.25
2023-01-13T12:03:22.979Z,75.15
2023-01-13T12:06:02.894Z,73.11
2023-01-13T12:08:51.028Z,69.43
2023-01-13T12:11:26.239Z,74.14
2023-01-13T12:14:07.139Z,72.34
2023-01-13T12:16:34.641Z,73.60
2023-01-13T12:19:17.510Z,73.23
2023-01-13T12:21:56.073Z,73.76
2023-01-13T12:24:27.284Z,72.72
2023-01-13T12:26:59.135Z,71.06
2023-01-13T12:29:30.939Z,74.08
2023-01-13T12:32:01.147Z,72.95
2023-01-13T12:34:44.134Z,73.74
2023-01-13T12:37:17.004Z,69.64
2023-01-13T12:39:46.766Z,72.02
2023-01-13T12:42:37.482Z,72.28
2023-01-13T12:45:22.823Z,71.88
2023-01-13T12:47:50.451Z,73.59
2023-01-13T12:50:41.340Z,73.34
2023-01-13T12:53:38.473Z,70.75
2023-01-13T12:56:40.413Z,73.17
2023-01-13T12:59:38.410Z,71.49
2023-01-13T13:02:27.584Z,71.69
2023-01-13T13:04:57.564Z,72.38
2023-01-13T13:07:33.621Z,72.32
2023-01-13T13:10:02.660Z,70.17
2023-01-13T13:13:09.296Z,73.27
2023-01-13T13:15:38.820Z,72.48
2023-01-13T13:18:25.143Z,72.29
2023-01-13T13:21:04.026Z,71.34
2023-01-13T13:23:43.574Z,71.93
2023-01-13T13:26:25.010Z,67.93
2023-01-13T13:29:16.499Z,70.93
2023-01-13T13:32:20.244Z,72.73
2023-01-13T13:34:53.473Z,72.56
2023-01-13T13:37:32.400Z,74.74
2023-01-13T13:40:20.639Z,72.45
2023-01-13T13:43:11.527Z,72.76
2023-01-13T13:45:56.875Z,71.44
2023-01-13T13:48:27.668Z,72.56
2023-01-13T13:50:58.306Z,72.08
2023-01-13T13:53:28.851Z,72.29
2023-01-13T13:55:59.443Z,68.92
2023-01-13T13:58:27.630Z,72.05
2023-01-13T14:00:56.541Z,73.50
2023-01-13T14:03:27.565Z,72.90
2023-01-13T14:05:57.173Z,74.33
2023-01-13T14:08:25.682Z,74.51
2023-01-13T14:10:53.155Z,75.03
2023-01-13T14:13:23.089Z,73.78
2023-01-13T14:15:51.594Z,74.04
2023-01-13T14:18:20.987Z,74.65
2023-01-13T14:20:56.039Z,73.84
2023-01-13T14:23:27.476Z,73.74
2023-01-13T14:25:55.563Z,73.56
2023-01-13T14:28:26.054Z,74.56
2023-01-13T14:30:54.449Z,74.86
2023-01-13T14:33:35.279Z,74.25
2023-01-13T14:36:24.946Z,74.58
2023-01-13T14:39:26.673Z,74.33
2023-01-13T14:41:54.393Z,74.58
2023-01-13T14:44:25.331Z,72.12
2023-01-13T14:46:55.146Z,73.17
2023-01-13T14:49:25.825Z,74.07
2023-01-13T14:51:54.909Z,74.77
2023-01-13T14:54:44.182Z,74.63
2023-01-13T14:57:16.897Z,74.43
2023-01-13T14:59:51.543Z,74.67
2023-01-13T15:02:46.647Z,75.09
2023-01-13T15:05:34.238Z,75.46
2023-01-13T15:08:06.235Z,75.79
2023-01-13T15:10:38.110Z,75.79
2023-01-13T15:13:07.212Z,75.19
2023-01-13T15:15:36.584Z,76.52
2023-01-13T15:18:11.573Z,76.95
2023-01-13T15:20:40.092Z,76.44
2023-01-13T15:23:09.162Z,77.16
2023-01-13T15:25:40.741Z,76.15
2023-01-13T15:28:11.649Z,77.20
2023-01-13T15:30:39.395Z,77.35
2023-01-13T15:33:06.930Z,77.51
2023-01-13T15:35:34.679Z,77.99
2023-01-13T15:38:02.724Z,76.47
2023-01-13T15:40:33.212Z,76.87
2023-01-13T15:43:18.235Z,78.01
2023-01-13T15:46:04.058Z,77.91
2023-01-13T15:48:32.803Z,77.44
2023-01-13T15:51:01.170Z,77.74
2023-01-13T15:53:29.892Z,77.21
2023-01-13T15:55:59.941Z,77.98
2023-01-13T15:58:29.566Z,78.19
2023-01-13T16:00:57.200Z,79.26
2023-01-13T16:03:24.755Z,78.86
2023-01-13T16:05:52.232Z,79.37
2023-01-13T16:08:21.291Z,79.10
2023-01-13T16:10:49.432Z,78.30
2023-01-13T16:13:18.715Z,78.93
2023-01-13T16:15:48.167Z,79.21
2023-01-13T16:18:17.946Z,78.85
2023-01-13T16:20:45.488Z,78.98
2023-01-13T16:23:13.548Z,79.15
2023-01-13T16:25:43.048Z,78.51
2023-01-13T16:28:19.088Z,78.83
2023-01-13T16:30:46.632Z,78.54
2023-01-13T16:33:14.233Z,78.84
2023-01-13T16:36:08.974Z,78.15
2023-01-13T16:38:29.160Z,78.81
2023-01-13T16:40:57.996Z,78.77
2023-01-13T16:43:27.810Z,79.35
2023-01-13T16:45:55.405Z,78.66
2023-01-13T16:48:22.979Z,79.25
2023-01-13T16:50:50.894Z,79.08
2023-01-13T16:53:18.458Z,79.49
2023-01-13T16:55:46.150Z,79.67
2023-01-13T16:58:17.795Z,79.88
2023-01-13T17:00:47.491Z,79.95
2023-01-13T17:03:15.105Z,79.93
2023-01-13T17:05:43.296Z,79.92
2023-01-13T17:08:12.731Z,79.44
2023-01-13T17:10:40.241Z,79.88
2023-01-13T17:13:16.051Z,80.03
2023-01-13T17:15:45.849Z,79.36
2023-01-13T17:18:13.870Z,79.83
2023-01-13T17:20:41.423Z,79.86
2023-01-13T17:23:08.926Z,80.19
2023-01-13T17:25:36.478Z,79.55
2023-01-13T17:28:04.162Z,79.34
2023-01-13T17:30:31.700Z,79.59
2023-01-13T17:33:00.532Z,80.44
2023-01-13T17:35:28.010Z,79.88
2023-01-13T17:37:55.781Z,80.06
2023-01-13T17:40:24.084Z,80.20
2023-01-13T17:42:51.569Z,80.30
2023-01-13T17:45:19.052Z,80.96
2023-01-13T17:47:47.579Z,81.11
2023-01-13T17:50:18.540Z,80.99
2023-01-13T17:52:46.072Z,80.24
2023-01-13T17:55:13.543Z,81.27
2023-01-13T17:57:41.025Z,80.61
2023-01-13T18:00:12.012Z,81.29
2023-01-13T18:02:39.560Z,80.96
2023-01-13T18:05:07.474Z,80.27
2023-01-13T18:07:36.246Z,80.65
2023-01-13T18:10:03.737Z,80.72
2023-01-13T18:12:31.234Z,80.11
2023-01-13T18:14:58.729Z,80.53
2023-01-13T18:17:26.212Z,81.13
2023-01-13T18:20:11.026Z,80.82
2023-01-13T18:22:57.676Z,80.18
2023-01-13T18:25:42.991Z,80.08
2023-01-13T18:28:10.475Z,79.49
2023-01-13T18:30:38.061Z,80.21
2023-01-13T18:33:05.597Z,79.75
2023-01-13T18:35:33.081Z,79.38
2023-01-13T18:38:01.864Z,79.96
2023-01-13T18:40:29.382Z,78.89
2023-01-13T18:42:55.901Z,79.47
2023-01-13T18:45:25.266Z,79.45
2023-01-13T18:47:53.731Z,78.92
2023-01-13T18:50:22.359Z,79.63
2023-01-13T18:52:49.976Z,79.01
2023-01-13T18:55:18.911Z,79.02
2023-01-13T18:57:46.833Z,78.88
2023-01-13T19:00:16.769Z,79.53
2023-01-13T19:02:44.707Z,78.83
2023-01-13T19:05:12.487Z,79.57
2023-01-13T19:07:40.389Z,79.72
2023-01-13T19:10:09.783Z,79.87
2023-01-13T19:12:38.613Z,78.92
2023-01-13T19:15:07.170Z,79.97
2023-01-13T19:17:35.745Z,79.06
2023-01-13T19:20:05.273Z,79.66
2023-01-13T19:22:34.209Z,78.46
2023-01-13T19:25:03.009Z,77.78
2023-01-13T19:27:30.938Z,79.59
2023-01-13T19:30:00.827Z,79.15
2023-01-13T19:32:30.730Z,79.10
2023-01-13T19:34:59.761Z,79.75
2023-01-13T19:37:30.208Z,79.41
2023-01-13T19:39:58.989Z,79.98
2023-01-13T19:42:43.960Z,79.89
2023-01-13T19:45:27.628Z,78.14
2023-01-13T19:47:55.778Z,78.97
2023-01-13T19:50:23.276Z,79.22
2023-01-13T19:52:50.749Z,78.82
2023-01-13T19:55:19.768Z,78.12
2023-01-13T19:57:48.660Z,79.15
2023-01-13T20:00:20.870Z,79.75
2023-01-13T20:02:49.391Z,79.45
2023-01-13T20:05:21.328Z,78.06
2023-01-13T20:07:49.831Z,79.55
2023-01-13T20:10:17.692Z,79.32
2023-01-13T20:12:45.351Z,80.41
2023-01-13T20:15:12.853Z,81.57
2023-01-13T20:17:41.789Z,81.33
2023-01-13T20:20:11.317Z,81.69
2023-01-13T20:22:38.934Z,81.27
2023-01-13T20:25:07.675Z,82.26
2023-01-13T20:27:35.232Z,81.81
2023-01-13T20:30:02.754Z,81.77
2023-01-13T20:32:30.218Z,82.10
2023-01-13T20:34:59.018Z,81.64
2023-01-13T20:37:26.928Z,82.02
2023-01-13T20:39:55.229Z,81.84
2023-01-13T20:42:31.755Z,82.19
2023-01-13T20:45:00.526Z,81.61
2023-01-13T20:47:29.147Z,82.08
2023-01-13T20:49:56.988Z,81.35
2023-01-13T20:52:26.075Z,81.97
2023-01-13T20:54:53.756Z,81.72
2023-01-13T20:57:21.302Z,81.94
2023-01-13T20:59:48.788Z,81.84
2023-01-13T21:02:17.208Z,81.91
2023-01-13T21:04:44.940Z,82.34
2023-01-13T21:07:12.444Z,81.91
2023-01-13T21:09:41.288Z,81.89
2023-01-13T21:12:26.555Z,81.14
2023-01-13T21:15:11.847Z,81.93
2023-01-13T21:17:56.693Z,81.74
2023-01-13T21:20:24.194Z,81.06
2023-01-13T21:22:51.657Z,82.28
2023-01-13T21:25:20.936Z,81.19
2023-01-13T21:27:48.449Z,81.58
2023-01-13T21:30:17.833Z,81.17
2023-01-13T21:32:46.112Z,81.22
2023-01-13T21:35:14.693Z,81.59
2023-01-13T21:37:43.554Z,81.21
2023-01-13T21:40:13.460Z,81.09
2023-01-13T21:43:00.416Z,80.87
2023-01-13T21:45:45.844Z,80.92
2023-01-13T21:48:13.506Z,80.54
2023-01-13T21:50:42.153Z,81.08
2023-01-13T21:53:09.670Z,81.45
2023-01-13T21:55:37.650Z,80.89
2023-01-13T21:58:11.675Z,80.62
2023-01-13T22:00:40.000Z,80.93
2023-01-13T22:03:08.381Z,80.90
2023-01-13T22:05:36.230Z,80.98
2023-01-13T22:08:03.860Z,81.39
2023-01-13T22:10:31.763Z,81.51
2023-01-13T22:13:20.411Z,81.14
2023-01-13T22:15:49.238Z,80.03
2023-01-13T22:18:18.002Z,81.35
2023-01-13T22:20:45.524Z,81.35
2023-01-13T22:23:13.323Z,81.63
2023-01-13T22:25:40.819Z,81.24
2023-01-13T22:28:09.319Z,80.88
2023-01-13T22:30:37.124Z,80.75
2023-01-13T22:33:05.996Z,80.87
2023-01-13T22:35:33.489Z,81.23
2023-01-13T22:38:00.957Z,81.78
2023-01-13T22:40:28.435Z,81.55
2023-01-13T22:42:55.892Z,81.55
2023-01-13T22:45:23.385Z,80.32
2023-01-13T22:47:50.843Z,80.79
2023-01-13T22:50:20.938Z,80.71
2023-01-13T22:52:48.651Z,80.68
2023-01-13T22:55:16.267Z,80.68
2023-01-13T22:57:48.123Z,80.32
2023-01-13T23:00:18.824Z,81.33
2023-01-13T23:02:47.905Z,80.42
2023-01-13T23:05:15.582Z,80.32
2023-01-13T23:07:44.364Z,80.91
2023-01-13T23:10:12.481Z,81.21
2023-01-13T23:12:39.931Z,81.23
2023-01-13T23:15:08.111Z,81.27
2023-01-13T23:17:35.596Z,81.94
2023-01-13T23:20:03.206Z,81.77
2023-01-13T23:22:30.672Z,81.71
2023-01-13T23:24:59.452Z,81.54
2023-01-13T23:27:26.937Z,81.41
2023-01-13T23:29:56.039Z,82.05
2023-01-13T23:32:23.640Z,81.01
2023-01-13T23:34:54.311Z,82.04
2023-01-13T23:37:21.782Z,81.59
2023-01-13T23:39:49.744Z,81.56
2023-01-13T23:42:18.698Z,81.50
2023-01-13T23:44:46.186Z,82.21
2023-01-13T23:47:13.649Z,81.73
2023-01-13T23:49:41.427Z,81.71
2023-01-13T23:52:08.894Z,81.90
2023-01-13T23:54:36.449Z,83.06
2023-01-13T23:57:03.971Z,82.78
2023-01-13T23:59:32.749Z,83.00
